sensor_id;sensor_type;location;lat;lon;timestamp;pressure;altitude;pressure_sealevel;temperature;humidity
37764;BME280;23602;51.084;7.090;2023-01-26T00:01:44;101047.63;;;-1.50;100.00
37764;BME280;23602;51.084;7.090;2023-01-26T00:04:12;101066.53;;;-1.33;100.00
37764;BME280;23602;51.084;7.090;2023-01-26T00:06:38;101043.06;;;-1.24;100.00
37764;BME280;23602;51.084;7.090;2023-01-26T00:09:03;101050.81;;;-1.34;100.00
37764;BME280;23602;51.084;7.090;2023-01-26T00:11:29;101049.47;;;-1.40;100.00
37764;BME280;23602;51.084;7.090;2023-01-26T00:13:56;101030.97;;;-1.51;100.00
37764;BME280;23602;51.084;7.090;2023-01-26T00:16:22;101074.72;;;-1.24;100.00
37764;BME280;23602;51.084;7.090;2023-01-26T00:18:47;101037.34;;;-1.42;100.00
37764;BME280;23602;51.084;7.090;2023-01-26T00:21:18;101061.25;;;-1.33;100.00
37764;BME280;23602;51.084;7.090;2023-01-26T00:23:45;101037.81;;;-1.48;100.00
37764;BME280;23602;51.084;7.090;2023-01-26T00:26:19;101030.00;;;-1.50;100.00
37764;BME280;23602;51.084;7.090;2023-01-26T00:28:45;101053.44;;;-1.34;100.00
37764;BME280;23602;51.084;7.090;2023-01-26T00:31:20;101049.91;;;-1.46;100.00
37764;BME280;23602;51.084;7.090;2023-01-26T00:33:46;101030.34;;;-1.54;100.00
37764;BME280;23602;51.084;7.090;2023-01-26T00:36:11;101027.88;;;-1.68;100.00
37764;BME280;23602;51.084;7.090;2023-01-26T00:38:38;101026.47;;;-1.61;100.00
37764;BME280;23602;51.084;7.090;2023-01-26T00:41:04;101004.88;;;-1.66;100.00
37764;BME280;23602;51.084;7.090;2023-01-26T00:43:29;101022.94;;;-1.49;100.00
37764;BME280;23602;51.084;7.090;2023-01-26T00:45:54;101001.72;;;-1.71;100.00
37764;BME280;23602;51.084;7.090;2023-01-26T00:48:20;101013.28;;;-1.61;100.00
37764;BME280;23602;51.084;7.090;2023-01-26T00:50:45;101023.59;;;-1.58;100.00
37764;BME280;23602;51.084;7.090;2023-01-26T00:53:11;101012.09;;;-1.57;100.00
37764;BME280;23602;51.084;7.090;2023-01-26T00:55:36;101016.88;;;-1.62;100.00
37764;BME280;23602;51.084;7.090;2023-01-26T00:58:04;101017.63;;;-1.60;100.00
37764;BME280;23602;51.084;7.090;2023-01-26T01:00:31;101001.06;;;-1.62;100.00
37764;BME280;23602;51.084;7.090;2023-01-26T01:02:57;101011.38;;;-1.59;100.00
37764;BME280;23602;51.084;7.090;2023-01-26T01:05:24;101002.13;;;-1.65;100.00
37764;BME280;23602;51.084;7.090;2023-01-26T01:07:49;100991.91;;;-1.69;100.00
37764;BME280;23602;51.084;7.090;2023-01-26T01:10:15;101002.97;;;-1.64;100.00
37764;BME280;23602;51.084;7.090;2023-01-26T01:12:40;100978.91;;;-1.83;100.00
37764;BME280;23602;51.084;7.090;2023-01-26T01:15:06;100986.56;;;-1.68;100.00
37764;BME280;23602;51.084;7.090;2023-01-26T01:17:33;100997.63;;;-1.52;100.00
37764;BME280;23602;51.084;7.090;2023-01-26T01:20:01;100977.06;;;-1.70;100.00
37764;BME280;23602;51.084;7.090;2023-01-26T01:22:26;101001.69;;;-1.59;100.00
37764;BME280;23602;51.084;7.090;2023-01-26T01:25:12;100992.63;;;-1.67;100.00
37764;BME280;23602;51.084;7.090;2023-01-26T01:27:38;100978.03;;;-1.71;100.00
37764;BME280;23602;51.084;7.090;2023-01-26T01:30:04;100997.47;;;-1.61;100.00
37764;BME280;23602;51.084;7.090;2023-01-26T01:32:34;100964.56;;;-1.79;100.00
37764;BME280;23602;51.084;7.090;2023-01-26T01:35:00;100983.06;;;-1.68;100.00
37764;BME280;23602;51.084;7.090;2023-01-26T01:37:27;100988.66;;;-1.73;100.00
37764;BME280;23602;51.084;7.090;2023-01-26T01:39:53;100985.75;;;-1.81;100.00
37764;BME280;23602;51.084;7.090;2023-01-26T01:42:19;100986.13;;;-1.74;100.00
37764;BME280;23602;51.084;7.090;2023-01-26T01:44:45;100979.84;;;-1.84;100.00
37764;BME280;23602;51.084;7.090;2023-01-26T01:47:31;100972.88;;;-1.85;100.00
37764;BME280;23602;51.084;7.090;2023-01-26T01:49:57;100971.28;;;-1.75;100.00
37764;BME280;23602;51.084;7.090;2023-01-26T01:52:29;100953.28;;;-1.81;100.00
37764;BME280;23602;51.084;7.090;2023-01-26T01:55:05;100944.53;;;-1.82;100.00
37764;BME280;23602;51.084;7.090;2023-01-26T01:57:36;100943.34;;;-1.78;100.00
37764;BME280;23602;51.084;7.090;2023-01-26T02:00:11;100933.16;;;-1.82;100.00
37764;BME280;23602;51.084;7.090;2023-01-26T02:02:37;100949.03;;;-1.71;100.00
37764;BME280;23602;51.084;7.090;2023-01-26T02:05:12;100914.44;;;-1.91;100.00
37764;BME280;23602;51.084;7.090;2023-01-26T02:07:39;100927.88;;;-1.82;100.00
37764;BME280;23602;51.084;7.090;2023-01-26T02:10:05;100936.28;;;-1.77;100.00
37764;BME280;23602;51.084;7.090;2023-01-26T02:12:44;100914.22;;;-1.87;100.00
37764;BME280;23602;51.084;7.090;2023-01-26T02:15:10;100933.44;;;-1.74;100.00
37764;BME280;23602;51.084;7.090;2023-01-26T02:17:36;100919.13;;;-1.70;100.00
37764;BME280;23602;51.084;7.090;2023-01-26T02:20:08;100927.63;;;-1.67;100.00
37764;BME280;23602;51.084;7.090;2023-01-26T02:28:03;100918.97;;;-1.93;100.00
37764;BME280;23602;51.084;7.090;2023-01-26T02:30:29;100908.84;;;-1.86;100.00
37764;BME280;23602;51.084;7.090;2023-01-26T02:32:55;100901.53;;;-1.82;100.00
37764;BME280;23602;51.084;7.090;2023-01-26T02:35:20;100899.81;;;-1.95;100.00
37764;BME280;23602;51.084;7.090;2023-01-26T02:37:46;100890.19;;;-2.07;100.00
37764;BME280;23602;51.084;7.090;2023-01-26T02:40:39;100926.78;;;-1.91;100.00
37764;BME280;23602;51.084;7.090;2023-01-26T02:43:08;100925.94;;;-1.92;100.00
37764;BME280;23602;51.084;7.090;2023-01-26T02:45:34;100925.22;;;-1.94;100.00
37764;BME280;23602;51.084;7.090;2023-01-26T02:48:00;100905.31;;;-1.98;100.00
37764;BME280;23602;51.084;7.090;2023-01-26T02:50:29;100917.41;;;-1.95;100.00
37764;BME280;23602;51.084;7.090;2023-01-26T02:52:55;100929.50;;;-1.93;100.00
37764;BME280;23602;51.084;7.090;2023-01-26T02:55:20;100919.81;;;-1.92;100.00
37764;BME280;23602;51.084;7.090;2023-01-26T02:57:47;100927.16;;;-1.84;100.00
37764;BME280;23602;51.084;7.090;2023-01-26T03:00:17;100923.13;;;-1.77;100.00
37764;BME280;23602;51.084;7.090;2023-01-26T03:02:45;100914.50;;;-1.79;100.00
37764;BME280;23602;51.084;7.090;2023-01-26T03:05:10;100928.69;;;-1.69;100.00
37764;BME280;23602;51.084;7.090;2023-01-26T03:07:36;100922.34;;;-1.67;100.00
37764;BME280;23602;51.084;7.090;2023-01-26T03:10:02;100920.91;;;-1.71;100.00
37764;BME280;23602;51.084;7.090;2023-01-26T03:12:28;100902.28;;;-1.80;100.00
37764;BME280;23602;51.084;7.090;2023-01-26T03:14:53;100906.72;;;-1.81;100.00
37764;BME280;23602;51.084;7.090;2023-01-26T03:17:37;100918.81;;;-1.78;100.00
37764;BME280;23602;51.084;7.090;2023-01-26T03:20:04;100917.63;;;-1.74;100.00
37764;BME280;23602;51.084;7.090;2023-01-26T03:22:48;100903.75;;;-1.76;100.00
37764;BME280;23602;51.084;7.090;2023-01-26T03:25:32;100910.44;;;-1.72;100.00
37764;BME280;23602;51.084;7.090;2023-01-26T03:28:16;100898.47;;;-1.76;100.00
37764;BME280;23602;51.084;7.090;2023-01-26T03:30:49;100914.78;;;-1.71;100.00
37764;BME280;23602;51.084;7.090;2023-01-26T03:33:16;100900.38;;;-1.78;100.00
37764;BME280;23602;51.084;7.090;2023-01-26T03:35:42;100912.03;;;-1.70;100.00
37764;BME280;23602;51.084;7.090;2023-01-26T03:38:08;100898.13;;;-1.72;100.00
37764;BME280;23602;51.084;7.090;2023-01-26T03:40:33;100910.00;;;-1.66;100.00
37764;BME280;23602;51.084;7.090;2023-01-26T03:43:18;100898.75;;;-1.68;100.00
37764;BME280;23602;51.084;7.090;2023-01-26T03:46:03;100898.25;;;-1.73;100.00
37764;BME280;23602;51.084;7.090;2023-01-26T03:48:47;100896.56;;;-1.74;100.00
37764;BME280;23602;51.084;7.090;2023-01-26T03:51:31;100905.59;;;-1.66;100.00
37764;BME280;23602;51.084;7.090;2023-01-26T03:54:15;100885.97;;;-1.85;100.00
37764;BME280;23602;51.084;7.090;2023-01-26T03:56:59;100873.84;;;-1.88;100.00
37764;BME280;23602;51.084;7.090;2023-01-26T03:59:24;100889.22;;;-1.82;100.00
37764;BME280;23602;51.084;7.090;2023-01-26T04:02:09;100888.31;;;-1.70;100.00
37764;BME280;23602;51.084;7.090;2023-01-26T04:04:54;100881.19;;;-1.80;100.00
37764;BME280;23602;51.084;7.090;2023-01-26T04:07:38;100881.19;;;-1.80;100.00
37764;BME280;23602;51.084;7.090;2023-01-26T04:10:22;100896.56;;;-1.74;100.00
37764;BME280;23602;51.084;7.090;2023-01-26T04:12:48;100881.19;;;-1.80;100.00
37764;BME280;23602;51.084;7.090;2023-01-26T04:15:32;100883.88;;;-1.69;100.00
37764;BME280;23602;51.084;7.090;2023-01-26T04:18:16;100886.44;;;-1.68;100.00
37764;BME280;23602;51.084;7.090;2023-01-26T04:21:04;100905.97;;;-1.59;100.00
37764;BME280;23602;51.084;7.090;2023-01-26T04:23:49;100909.44;;;-1.59;100.00
37764;BME280;23602;51.084;7.090;2023-01-26T04:26:15;100892.00;;;-1.72;100.00
37764;BME280;23602;51.084;7.090;2023-01-26T04:28:40;100904.53;;;-1.63;100.00
37764;BME280;23602;51.084;7.090;2023-01-26T04:31:06;100885.09;;;-1.73;100.00
37764;BME280;23602;51.084;7.090;2023-01-26T04:33:31;100888.22;;;-1.68;100.00
37764;BME280;23602;51.084;7.090;2023-01-26T04:36:04;100885.38;;;-1.65;100.00
37764;BME280;23602;51.084;7.090;2023-01-26T04:38:30;100886.09;;;-1.63;100.00
37764;BME280;23602;51.084;7.090;2023-01-26T04:40:55;100880.91;;;-1.65;100.00
37764;BME280;23602;51.084;7.090;2023-01-26T04:43:21;100885.94;;;-1.62;100.00
37764;BME280;23602;51.084;7.090;2023-01-26T04:46:00;100910.56;;;-1.50;100.00
37764;BME280;23602;51.084;7.090;2023-01-26T04:48:29;100913.44;;;-1.53;100.00
37764;BME280;23602;51.084;7.090;2023-01-26T04:50:56;100905.53;;;-1.53;100.00
37764;BME280;23602;51.084;7.090;2023-01-26T04:53:22;100912.47;;;-1.52;100.00
37764;BME280;23602;51.084;7.090;2023-01-26T04:55:48;100913.94;;;-1.48;100.00
37764;BME280;23602;51.084;7.090;2023-01-26T04:58:13;100892.50;;;-1.67;100.00
37764;BME280;23602;51.084;7.090;2023-01-26T05:00:39;100911.66;;;-1.53;100.00
37764;BME280;23602;51.084;7.090;2023-01-26T05:03:04;100900.91;;;-1.62;100.00
37764;BME280;23602;51.084;7.090;2023-01-26T05:05:29;100897.34;;;-1.61;100.00
37764;BME280;23602;51.084;7.090;2023-01-26T05:07:55;100899.84;;;-1.60;100.00
37764;BME280;23602;51.084;7.090;2023-01-26T05:10:20;100916.16;;;-1.55;100.00
37764;BME280;23602;51.084;7.090;2023-01-26T05:12:46;100881.16;;;-1.68;100.00
37764;BME280;23602;51.084;7.090;2023-01-26T05:15:11;100914.78;;;-1.48;100.00
37764;BME280;23602;51.084;7.090;2023-01-26T05:17:37;100903.34;;;-1.59;100.00
37764;BME280;23602;51.084;7.090;2023-01-26T05:20:02;100924.13;;;-1.44;100.00
37764;BME280;23602;51.084;7.090;2023-01-26T05:22:28;100905.31;;;-1.50;100.00
37764;BME280;23602;51.084;7.090;2023-01-26T05:24:53;100911.38;;;-1.50;100.00
37764;BME280;23602;51.084;7.090;2023-01-26T05:27:19;100899.28;;;-1.52;100.00
37764;BME280;23602;51.084;7.090;2023-01-26T05:29:48;100912.38;;;-1.40;100.00
37764;BME280;23602;51.084;7.090;2023-01-26T05:32:14;100888.03;;;-1.54;100.00
37764;BME280;23602;51.084;7.090;2023-01-26T05:34:39;100911.66;;;-1.42;100.00
37764;BME280;23602;51.084;7.090;2023-01-26T05:37:05;100909.38;;;-1.46;100.00
37764;BME280;23602;51.084;7.090;2023-01-26T05:39:30;100909.38;;;-1.46;100.00
37764;BME280;23602;51.084;7.090;2023-01-26T05:41:55;100916.56;;;-1.48;100.00
37764;BME280;23602;51.084;7.090;2023-01-26T05:44:22;100909.81;;;-1.52;100.00
37764;BME280;23602;51.084;7.090;2023-01-26T05:46:48;100921.25;;;-1.41;100.00
37764;BME280;23602;51.084;7.090;2023-01-26T05:49:14;100910.94;;;-1.44;100.00
37764;BME280;23602;51.084;7.090;2023-01-26T05:51:39;100885.59;;;-1.57;100.00
37764;BME280;23602;51.084;7.090;2023-01-26T05:54:05;100905.19;;;-1.49;100.00
37764;BME280;23602;51.084;7.090;2023-01-26T05:56:30;100922.13;;;-1.40;100.00
37764;BME280;23602;51.084;7.090;2023-01-26T05:58:55;100913.22;;;-1.50;100.00
37764;BME280;23602;51.084;7.090;2023-01-26T06:01:21;100899.28;;;-1.52;100.00
37764;BME280;23602;51.084;7.090;2023-01-26T06:03:46;100922.84;;;-1.38;100.00
37764;BME280;23602;51.084;7.090;2023-01-26T06:06:11;100927.13;;;-1.37;100.00
37764;BME280;23602;51.084;7.090;2023-01-26T06:08:37;100925.41;;;-1.49;100.00
37764;BME280;23602;51.084;7.090;2023-01-26T06:11:02;100924.56;;;-1.50;100.00
37764;BME280;23602;51.084;7.090;2023-01-26T06:13:28;100919.19;;;-1.48;100.00
37764;BME280;23602;51.084;7.090;2023-01-26T06:15:54;100924.69;;;-1.51;100.00
37764;BME280;23602;51.084;7.090;2023-01-26T06:18:19;100939.81;;;-1.42;100.00
37764;BME280;23602;51.084;7.090;2023-01-26T06:20:44;100926.38;;;-1.50;100.00
37764;BME280;23602;51.084;7.090;2023-01-26T06:23:10;100929.75;;;-1.48;100.00
37764;BME280;23602;51.084;7.090;2023-01-26T06:25:37;100929.97;;;-1.51;100.00
37764;BME280;23602;51.084;7.090;2023-01-26T06:28:05;100940.78;;;-1.43;100.00
37764;BME280;23602;51.084;7.090;2023-01-26T06:30:30;100928.91;;;-1.49;100.00
37764;BME280;23602;51.084;7.090;2023-01-26T06:32:58;100945.50;;;-1.36;100.00
37764;BME280;23602;51.084;7.090;2023-01-26T06:35:24;100939.31;;;-1.47;100.00
37764;BME280;23602;51.084;7.090;2023-01-26T06:37:51;100961.31;;;-1.36;100.00
37764;BME280;23602;51.084;7.090;2023-01-26T06:40:17;100944.50;;;-1.46;100.00
37764;BME280;23602;51.084;7.090;2023-01-26T06:42:49;100960.47;;;-1.36;100.00
37764;BME280;23602;51.084;7.090;2023-01-26T06:45:16;100958.66;;;-1.36;100.00
37764;BME280;23602;51.084;7.090;2023-01-26T06:47:46;100951.31;;;-1.43;100.00
37764;BME280;23602;51.084;7.090;2023-01-26T06:50:24;100968.00;;;-1.32;100.00
37764;BME280;23602;51.084;7.090;2023-01-26T06:52:53;100943.28;;;-1.42;100.00
37764;BME280;23602;51.084;7.090;2023-01-26T06:55:24;100965.28;;;-1.30;100.00
37764;BME280;23602;51.084;7.090;2023-01-26T06:57:53;100947.00;;;-1.44;100.00
37764;BME280;23602;51.084;7.090;2023-01-26T07:00:19;100949.19;;;-1.38;100.00
37764;BME280;23602;51.084;7.090;2023-01-26T07:02:45;100943.19;;;-1.40;100.00
37764;BME280;23602;51.084;7.090;2023-01-26T07:05:11;100966.56;;;-1.36;100.00
37764;BME280;23602;51.084;7.090;2023-01-26T07:07:36;100954.56;;;-1.40;100.00
37764;BME280;23602;51.084;7.090;2023-01-26T07:10:03;100945.09;;;-1.42;100.00
37764;BME280;23602;51.084;7.090;2023-01-26T07:12:41;100962.66;;;-1.30;100.00
37764;BME280;23602;51.084;7.090;2023-01-26T07:15:08;100959.38;;;-1.34;100.00
37764;BME280;23602;51.084;7.090;2023-01-26T07:17:34;100925.06;;;-1.45;100.00
37764;BME280;23602;51.084;7.090;2023-01-26T07:19:59;100957.88;;;-1.25;100.00
37764;BME280;23602;51.084;7.090;2023-01-26T07:22:25;100933.97;;;-1.35;100.00
37764;BME280;23602;51.084;7.090;2023-01-26T07:24:50;100946.94;;;-1.32;100.00
37764;BME280;23602;51.084;7.090;2023-01-26T07:27:16;100959.53;;;-1.24;100.00
37764;BME280;23602;51.084;7.090;2023-01-26T07:29:41;100930.75;;;-1.38;100.00
37764;BME280;23602;51.084;7.090;2023-01-26T07:32:07;100951.13;;;-1.29;100.00
37764;BME280;23602;51.084;7.090;2023-01-26T07:34:32;100928.09;;;-1.38;100.00
37764;BME280;23602;51.084;7.090;2023-01-26T07:36:57;100950.53;;;-1.33;100.00
37764;BME280;23602;51.084;7.090;2023-01-26T07:39:23;100946.50;;;-1.49;100.00
37764;BME280;23602;51.084;7.090;2023-01-26T07:41:52;100945.94;;;-1.42;100.00
37764;BME280;23602;51.084;7.090;2023-01-26T07:44:20;100947.41;;;-1.38;100.00
37764;BME280;23602;51.084;7.090;2023-01-26T07:46:46;100963.25;;;-1.27;100.00
37764;BME280;23602;51.084;7.090;2023-01-26T07:49:11;100968.41;;;-1.25;100.00
37764;BME280;23602;51.084;7.090;2023-01-26T07:51:37;100954.97;;;-1.33;100.00
37764;BME280;23602;51.084;7.090;2023-01-26T07:54:04;100953.03;;;-1.31;100.00
37764;BME280;23602;51.084;7.090;2023-01-26T07:56:29;100976.56;;;-1.17;100.00
37764;BME280;23602;51.084;7.090;2023-01-26T07:58:55;100950.28;;;-1.30;100.00
37764;BME280;23602;51.084;7.090;2023-01-26T08:01:21;100966.28;;;-1.20;100.00
37764;BME280;23602;51.084;7.090;2023-01-26T08:03:48;100953.81;;;-1.18;100.00
37764;BME280;23602;51.084;7.090;2023-01-26T08:06:14;100961.38;;;-1.13;100.00
37764;BME280;23602;51.084;7.090;2023-01-26T08:08:41;100941.81;;;-1.22;100.00
37764;BME280;23602;51.084;7.090;2023-01-26T08:11:07;100976.53;;;-1.04;100.00
37764;BME280;23602;51.084;7.090;2023-01-26T08:13:33;100963.94;;;-1.01;100.00
37764;BME280;23602;51.084;7.090;2023-01-26T08:16:00;100968.97;;;-0.98;100.00
37764;BME280;23602;51.084;7.090;2023-01-26T08:18:25;100960.06;;;-1.08;100.00
37764;BME280;23602;51.084;7.090;2023-01-26T08:20:52;100975.69;;;-0.94;100.00
37764;BME280;23602;51.084;7.090;2023-01-26T08:23:18;100951.31;;;-1.08;100.00
37764;BME280;23602;51.084;7.090;2023-01-26T08:25:43;100958.88;;;-1.04;100.00
37764;BME280;23602;51.084;7.090;2023-01-26T08:28:12;100957.22;;;-1.05;100.00
37764;BME280;23602;51.084;7.090;2023-01-26T08:30:40;100959.63;;;-1.02;100.00
37764;BME280;23602;51.084;7.090;2023-01-26T08:33:05;100963.34;;;-0.93;100.00
37764;BME280;23602;51.084;7.090;2023-01-26T08:35:32;100946.94;;;-0.97;100.00
37764;BME280;23602;51.084;7.090;2023-01-26T08:37:57;100968.03;;;-0.86;100.00
37764;BME280;23602;51.084;7.090;2023-01-26T08:40:23;100961.09;;;-0.87;100.00
37764;BME280;23602;51.084;7.090;2023-01-26T08:42:49;100957.50;;;-0.86;100.00
37764;BME280;23602;51.084;7.090;2023-01-26T08:45:15;100949.47;;;-0.84;100.00
37764;BME280;23602;51.084;7.090;2023-01-26T08:47:40;100966.38;;;-0.76;100.00
37764;BME280;23602;51.084;7.090;2023-01-26T08:50:07;100941.56;;;-0.84;100.00
37764;BME280;23602;51.084;7.090;2023-01-26T08:52:32;100957.53;;;-0.75;100.00
37764;BME280;23602;51.084;7.090;2023-01-26T08:54:58;100942.16;;;-0.81;100.00
37764;BME280;23602;51.084;7.090;2023-01-26T08:57:24;100972.63;;;-0.66;100.00
37764;BME280;23602;51.084;7.090;2023-01-26T08:59:50;100944.69;;;-0.79;100.00
37764;BME280;23602;51.084;7.090;2023-01-26T09:02:17;100973.34;;;-0.64;100.00
37764;BME280;23602;51.084;7.090;2023-01-26T09:04:43;100975.88;;;-0.62;100.00
37764;BME280;23602;51.084;7.090;2023-01-26T09:07:09;100979.84;;;-0.68;100.00
37764;BME280;23602;51.084;7.090;2023-01-26T09:09:34;100984.97;;;-0.66;100.00
37764;BME280;23602;51.084;7.090;2023-01-26T09:12:00;100978.63;;;-0.64;100.00
37764;BME280;23602;51.084;7.090;2023-01-26T09:14:25;100965.53;;;-0.76;100.00
37764;BME280;23602;51.084;7.090;2023-01-26T09:16:53;100980.31;;;-0.63;100.00
37764;BME280;23602;51.084;7.090;2023-01-26T09:19:18;100981.28;;;-0.64;100.00
37764;BME280;23602;51.084;7.090;2023-01-26T09:21:43;100974.69;;;-0.58;100.00
37764;BME280;23602;51.084;7.090;2023-01-26T09:24:09;100969.41;;;-0.58;100.00
37764;BME280;23602;51.084;7.090;2023-01-26T09:26:34;100981.91;;;-0.49;100.00
37764;BME280;23602;51.084;7.090;2023-01-26T09:29:20;100985.63;;;-0.51;100.00
37764;BME280;23602;51.084;7.090;2023-01-26T09:31:49;100954.38;;;-0.69;100.00
37764;BME280;23602;51.084;7.090;2023-01-26T09:34:15;100965.09;;;-0.59;100.00
37764;BME280;23602;51.084;7.090;2023-01-26T09:36:42;100985.63;;;-0.51;100.00
37764;BME280;23602;51.084;7.090;2023-01-26T09:39:07;100983.00;;;-0.51;100.00
37764;BME280;23602;51.084;7.090;2023-01-26T09:41:54;100976.00;;;-0.52;100.00
37764;BME280;23602;51.084;7.090;2023-01-26T09:48:11;100989.13;;;-0.51;100.00
37764;BME280;23602;51.084;7.090;2023-01-26T09:50:50;100990.19;;;-0.53;100.00
37764;BME280;23602;51.084;7.090;2023-01-26T09:53:25;100977.81;;;-0.53;100.00
37764;BME280;23602;51.084;7.090;2023-01-26T09:55:54;100965.91;;;-0.58;100.00
37764;BME280;23602;51.084;7.090;2023-01-26T09:58:32;100986.47;;;-0.40;100.00
37764;BME280;23602;51.084;7.090;2023-01-26T10:01:02;100952.00;;;-0.60;100.00
37764;BME280;23602;51.084;7.090;2023-01-26T10:03:46;100973.63;;;-0.44;100.00
37764;BME280;23602;51.084;7.090;2023-01-26T10:06:20;100972.69;;;-0.43;100.00
37764;BME280;23602;51.084;7.090;2023-01-26T10:08:47;100979.97;;;-0.47;100.00
37764;BME280;23602;51.084;7.090;2023-01-26T10:11:30;100979.25;;;-0.38;100.00
37764;BME280;23602;51.084;7.090;2023-01-26T10:14:30;100980.72;;;-0.34;100.00
37764;BME280;23602;51.084;7.090;2023-01-26T10:16:56;100967.28;;;-0.31;100.00
37764;BME280;23602;51.084;7.090;2023-01-26T10:21:59;100950.81;;;-0.34;100.00
37764;BME280;23602;51.084;7.090;2023-01-26T10:24:27;100953.47;;;-0.34;100.00
37764;BME280;23602;51.084;7.090;2023-01-26T10:26:56;100951.78;;;-0.35;100.00
37764;BME280;23602;51.084;7.090;2023-01-26T10:29:22;100966.06;;;-0.27;100.00
37764;BME280;23602;51.084;7.090;2023-01-26T10:31:47;100957.81;;;-0.33;100.00
37764;BME280;23602;51.084;7.090;2023-01-26T10:34:16;100946.25;;;-0.32;100.00
37764;BME280;23602;51.084;7.090;2023-01-26T10:36:44;100958.47;;;-0.20;100.00
37764;BME280;23602;51.084;7.090;2023-01-26T10:39:15;100944.00;;;-0.26;100.00
37764;BME280;23602;51.084;7.090;2023-01-26T10:41:55;100941.34;;;-0.26;100.00
37764;BME280;23602;51.084;7.090;2023-01-26T10:44:25;100958.50;;;-0.09;100.00
37764;BME280;23602;51.084;7.090;2023-01-26T10:47:15;100940.72;;;-0.07;100.00
37764;BME280;23602;51.084;7.090;2023-01-26T10:49:40;100936.88;;;-0.03;100.00
37764;BME280;23602;51.084;7.090;2023-01-26T10:54:33;100929.66;;;-0.01;100.00
37764;BME280;23602;51.084;7.090;2023-01-26T10:59:43;100939.00;;;0.14;100.00
37764;BME280;23602;51.084;7.090;2023-01-26T11:07:31;100908.84;;;0.06;100.00
37764;BME280;23602;51.084;7.090;2023-01-26T11:12:40;100903.84;;;0.03;100.00
37764;BME280;23602;51.084;7.090;2023-01-26T11:15:15;100905.66;;;0.02;100.00
37764;BME280;23602;51.084;7.090;2023-01-26T11:17:50;100921.91;;;0.18;100.00
37764;BME280;23602;51.084;7.090;2023-01-26T11:20:35;100911.88;;;0.12;100.00
37764;BME280;23602;51.084;7.090;2023-01-26T11:23:06;100922.53;;;0.22;100.00
37764;BME280;23602;51.084;7.090;2023-01-26T11:25:59;100908.25;;;0.13;100.00
37764;BME280;23602;51.084;7.090;2023-01-26T11:31:21;100905.94;;;0.20;100.00
37764;BME280;23602;51.084;7.090;2023-01-26T11:36:28;100920.50;;;0.14;100.00
37764;BME280;23602;51.084;7.090;2023-01-26T11:42:19;100907.06;;;0.06;100.00
37764;BME280;23602;51.084;7.090;2023-01-26T11:47:49;100891.34;;;0.05;100.00
37764;BME280;23602;51.084;7.090;2023-01-26T11:50:29;100890.97;;;0.09;100.00
37764;BME280;23602;51.084;7.090;2023-01-26T11:53:01;100907.50;;;0.22;100.00
37764;BME280;23602;51.084;7.090;2023-01-26T11:56:06;100894.06;;;0.14;100.00
37764;BME280;23602;51.084;7.090;2023-01-26T11:58:39;100903.06;;;0.23;100.00
37764;BME280;23602;51.084;7.090;2023-01-26T12:03:45;100902.50;;;0.08;100.00
37764;BME280;23602;51.084;7.090;2023-01-26T12:06:39;100902.47;;;0.19;100.00
37764;BME280;23602;51.084;7.090;2023-01-26T12:09:31;100904.16;;;0.20;100.00
37764;BME280;23602;51.084;7.090;2023-01-26T12:14:52;100908.94;;;0.26;100.00
37764;BME280;23602;51.084;7.090;2023-01-26T12:23:42;100885.66;;;0.20;100.00
37764;BME280;23602;51.084;7.090;2023-01-26T12:26:12;100877.97;;;0.17;100.00
37764;BME280;23602;51.084;7.090;2023-01-26T12:29:17;100877.00;;;0.18;100.00
37764;BME280;23602;51.084;7.090;2023-01-26T12:31:53;100882.03;;;0.21;100.00
37764;BME280;23602;51.084;7.090;2023-01-26T12:34:26;100881.53;;;0.27;100.00
37764;BME280;23602;51.084;7.090;2023-01-26T12:39:33;100878.38;;;0.33;100.00
37764;BME280;23602;51.084;7.090;2023-01-26T12:44:58;100865.44;;;0.30;100.00
37764;BME280;23602;51.084;7.090;2023-01-26T12:50:10;100853.31;;;0.28;100.00
37764;BME280;23602;51.084;7.090;2023-01-26T12:53:05;100869.09;;;0.39;100.00
37764;BME280;23602;51.084;7.090;2023-01-26T12:55:40;100840.28;;;0.36;100.00
37764;BME280;23602;51.084;7.090;2023-01-26T12:58:26;100854.53;;;0.44;100.00
37764;BME280;23602;51.084;7.090;2023-01-26T13:03:32;100860.44;;;0.48;100.00
37764;BME280;23602;51.084;7.090;2023-01-26T13:06:01;100838.44;;;0.47;100.00
37764;BME280;23602;51.084;7.090;2023-01-26T13:11:06;100822.38;;;0.39;100.00
37764;BME280;23602;51.084;7.090;2023-01-26T13:13:33;100838.03;;;0.52;100.00
37764;BME280;23602;51.084;7.090;2023-01-26T13:18:57;100838.84;;;0.63;100.00
37764;BME280;23602;51.084;7.090;2023-01-26T13:26:50;100839.94;;;0.61;100.00
37764;BME280;23602;51.084;7.090;2023-01-26T13:34:38;100833.25;;;0.46;100.00
37764;BME280;23602;51.084;7.090;2023-01-26T13:37:12;100835.84;;;0.57;100.00
37764;BME280;23602;51.084;7.090;2023-01-26T13:39:41;100824.75;;;0.42;100.00
37764;BME280;23602;51.084;7.090;2023-01-26T13:42:35;100837.91;;;0.53;100.00
37764;BME280;23602;51.084;7.090;2023-01-26T13:45:31;100833.84;;;0.49;100.00
37764;BME280;23602;51.084;7.090;2023-01-26T13:48:15;100831.69;;;0.43;100.00
37764;BME280;23602;51.084;7.090;2023-01-26T13:50:45;100843.47;;;0.50;100.00
37764;BME280;23602;51.084;7.090;2023-01-26T13:53:46;100847.91;;;0.50;100.00
37764;BME280;23602;51.084;7.090;2023-01-26T13:56:28;100832.09;;;0.39;100.00
37764;BME280;23602;51.084;7.090;2023-01-26T13:59:02;100845.66;;;0.45;100.00
37764;BME280;23602;51.084;7.090;2023-01-26T14:01:28;100846.59;;;0.44;100.00
37764;BME280;23602;51.084;7.090;2023-01-26T14:04:04;100854.53;;;0.44;100.00
37764;BME280;23602;51.084;7.090;2023-01-26T14:06:30;100855.50;;;0.43;100.00
37764;BME280;23602;51.084;7.090;2023-01-26T14:08:56;100827.34;;;0.33;100.00
37764;BME280;23602;51.084;7.090;2023-01-26T14:11:24;100842.28;;;0.43;100.00
37764;BME280;23602;51.084;7.090;2023-01-26T14:13:56;100834.63;;;0.40;100.00